sensor_id;sensor_type;location;lat;lon;timestamp;temperature;humidity
16523;DHT22;19889;52.546;13.348;2023-08-08T00:02:14;17.70;99.90
16523;DHT22;19889;52.546;13.348;2023-08-08T00:04:41;17.70;99.90
16523;DHT22;19889;52.546;13.348;2023-08-08T00:07:10;17.70;99.90
16523;DHT22;19889;52.546;13.348;2023-08-08T00:09:37;17.70;99.90
16523;DHT22;19889;52.546;13.348;2023-08-08T00:12:05;17.60;99.90
16523;DHT22;19889;52.546;13.348;2023-08-08T00:14:33;17.60;99.90
16523;DHT22;19889;52.546;13.348;2023-08-08T00:17:00;17.60;99.90
16523;DHT22;19889;52.546;13.348;2023-08-08T00:19:27;17.60;99.90
16523;DHT22;19889;52.546;13.348;2023-08-08T00:21:55;17.60;99.90
16523;DHT22;19889;52.546;13.348;2023-08-08T00:24:23;17.60;99.90
16523;DHT22;19889;52.546;13.348;2023-08-08T00:26:50;17.60;99.90
16523;DHT22;19889;52.546;13.348;2023-08-08T00:29:18;17.50;99.90
16523;DHT22;19889;52.546;13.348;2023-08-08T00:31:45;17.50;99.90
16523;DHT22;19889;52.546;13.348;2023-08-08T00:34:12;17.50;99.90
16523;DHT22;19889;52.546;13.348;2023-08-08T00:36:40;17.50;99.90
16523;DHT22;19889;52.546;13.348;2023-08-08T00:39:07;17.50;99.90
16523;DHT22;19889;52.546;13.348;2023-08-08T00:41:36;17.40;99.90
16523;DHT22;19889;52.546;13.348;2023-08-08T00:44:03;17.40;99.90
16523;DHT22;19889;52.546;13.348;2023-08-08T00:46:31;17.40;99.90
16523;DHT22;19889;52.546;13.348;2023-08-08T00:48:58;17.40;99.90
16523;DHT22;19889;52.546;13.348;2023-08-08T00:51:26;17.30;99.90
16523;DHT22;19889;52.546;13.348;2023-08-08T00:53:54;17.30;99.90
16523;DHT22;19889;52.546;13.348;2023-08-08T00:56:23;17.30;99.90
16523;DHT22;19889;52.546;13.348;2023-08-08T00:58:52;17.30;99.90
16523;DHT22;19889;52.546;13.348;2023-08-08T01:01:19;17.30;99.90
16523;DHT22;19889;52.546;13.348;2023-08-08T01:03:46;17.30;99.90
16523;DHT22;19889;52.546;13.348;2023-08-08T01:06:21;17.30;99.90
16523;DHT22;19889;52.546;13.348;2023-08-08T01:08:57;17.30;99.90
16523;DHT22;19889;52.546;13.348;2023-08-08T01:11:25;17.30;99.90
16523;DHT22;19889;52.546;13.348;2023-08-08T01:14:16;17.30;99.90
16523;DHT22;19889;52.546;13.348;2023-08-08T01:16:44;17.30;99.90
16523;DHT22;19889;52.546;13.348;2023-08-08T01:19:21;17.30;99.90
16523;DHT22;19889;52.546;13.348;2023-08-08T01:21:53;17.30;99.90
16523;DHT22;19889;52.546;13.348;2023-08-08T01:24:22;17.30;99.90
16523;DHT22;19889;52.546;13.348;2023-08-08T01:26:52;17.10;99.90
16523;DHT22;19889;52.546;13.348;2023-08-08T01:29:20;17.30;99.90
16523;DHT22;19889;52.546;13.348;2023-08-08T01:31:47;17.30;99.90
16523;DHT22;19889;52.546;13.348;2023-08-08T01:34:14;17.20;99.90
16523;DHT22;19889;52.546;13.348;2023-08-08T01:36:49;17.20;99.90
16523;DHT22;19889;52.546;13.348;2023-08-08T01:39:23;17.20;99.90
16523;DHT22;19889;52.546;13.348;2023-08-08T01:41:53;17.20;99.90
16523;DHT22;19889;52.546;13.348;2023-08-08T01:44:21;17.20;99.90
16523;DHT22;19889;52.546;13.348;2023-08-08T01:46:52;17.20;99.90
16523;DHT22;19889;52.546;13.348;2023-08-08T01:49:20;17.20;99.90
16523;DHT22;19889;52.546;13.348;2023-08-08T01:51:47;17.20;99.90
16523;DHT22;19889;52.546;13.348;2023-08-08T01:54:16;17.20;99.90
16523;DHT22;19889;52.546;13.348;2023-08-08T01:56:45;17.20;99.90
16523;DHT22;19889;52.546;13.348;2023-08-08T01:59:12;17.20;99.90
16523;DHT22;19889;52.546;13.348;2023-08-08T02:01:39;17.20;99.90
16523;DHT22;19889;52.546;13.348;2023-08-08T02:04:07;17.20;99.90
16523;DHT22;19889;52.546;13.348;2023-08-08T02:06:34;17.20;99.90
16523;DHT22;19889;52.546;13.348;2023-08-08T02:09:02;17.20;99.90
16523;DHT22;19889;52.546;13.348;2023-08-08T02:11:29;17.10;99.90
16523;DHT22;19889;52.546;13.348;2023-08-08T02:13:58;17.10;99.90
16523;DHT22;19889;52.546;13.348;2023-08-08T02:16:25;17.10;99.90
16523;DHT22;19889;52.546;13.348;2023-08-08T02:18:53;17.10;99.90
16523;DHT22;19889;52.546;13.348;2023-08-08T02:21:20;17.10;99.90
16523;DHT22;19889;52.546;13.348;2023-08-08T02:23:48;17.10;99.90
16523;DHT22;19889;52.546;13.348;2023-08-08T02:26:15;17.00;99.90
16523;DHT22;19889;52.546;13.348;2023-08-08T02:28:43;17.00;99.90
16523;DHT22;19889;52.546;13.348;2023-08-08T02:31:11;17.00;99.90
16523;DHT22;19889;52.546;13.348;2023-08-08T02:33:40;17.00;99.90
16523;DHT22;19889;52.546;13.348;2023-08-08T02:36:07;17.10;99.90
16523;DHT22;19889;52.546;13.348;2023-08-08T02:38:35;17.10;99.90
16523;DHT22;19889;52.546;13.348;2023-08-08T02:41:02;17.10;99.90
16523;DHT22;19889;52.546;13.348;2023-08-08T02:43:29;17.00;99.90
16523;DHT22;19889;52.546;13.348;2023-08-08T02:45:56;17.00;99.90
16523;DHT22;19889;52.546;13.348;2023-08-08T02:48:26;17.00;99.90
16523;DHT22;19889;52.546;13.348;2023-08-08T02:50:53;17.00;99.90
16523;DHT22;19889;52.546;13.348;2023-08-08T02:53:24;17.00;99.90
16523;DHT22;19889;52.546;13.348;2023-08-08T02:55:51;17.00;99.90
16523;DHT22;19889;52.546;13.348;2023-08-08T02:58:19;17.00;99.90
16523;DHT22;19889;52.546;13.348;2023-08-08T03:00:46;16.90;99.90
16523;DHT22;19889;52.546;13.348;2023-08-08T03:03:16;16.90;99.90
16523;DHT22;19889;52.546;13.348;2023-08-08T03:05:46;16.90;99.90
16523;DHT22;19889;52.546;13.348;2023-08-08T03:08:16;16.90;99.90
16523;DHT22;19889;52.546;13.348;2023-08-08T03:10:43;16.90;99.90
16523;DHT22;19889;52.546;13.348;2023-08-08T03:13:11;16.90;99.90
16523;DHT22;19889;52.546;13.348;2023-08-08T03:15:39;16.90;99.90
16523;DHT22;19889;52.546;13.348;2023-08-08T03:18:07;16.90;99.90
16523;DHT22;19889;52.546;13.348;2023-08-08T03:20:34;16.90;99.90
16523;DHT22;19889;52.546;13.348;2023-08-08T03:23:04;16.80;99.90
16523;DHT22;19889;52.546;13.348;2023-08-08T03:25:31;16.80;99.90
16523;DHT22;19889;52.546;13.348;2023-08-08T03:27:58;16.80;99.90
16523;DHT22;19889;52.546;13.348;2023-08-08T03:30:26;16.80;99.90
16523;DHT22;19889;52.546;13.348;2023-08-08T03:32:54;16.80;99.90
16523;DHT22;19889;52.546;13.348;2023-08-08T03:35:25;16.80;99.90
16523;DHT22;19889;52.546;13.348;2023-08-08T03:37:53;16.80;99.90
16523;DHT22;19889;52.546;13.348;2023-08-08T03:40:21;16.80;99.90
16523;DHT22;19889;52.546;13.348;2023-08-08T03:42:49;16.80;99.90
16523;DHT22;19889;52.546;13.348;2023-08-08T03:45:19;16.80;99.90
16523;DHT22;19889;52.546;13.348;2023-08-08T03:47:46;16.80;99.90
16523;DHT22;19889;52.546;13.348;2023-08-08T03:50:14;16.80;99.90
16523;DHT22;19889;52.546;13.348;2023-08-08T03:52:42;16.80;99.90
16523;DHT22;19889;52.546;13.348;2023-08-08T03:55:11;16.80;99.90
16523;DHT22;19889;52.546;13.348;2023-08-08T03:57:41;16.80;99.90
16523;DHT22;19889;52.546;13.348;2023-08-08T04:00:08;16.80;99.90
16523;DHT22;19889;52.546;13.348;2023-08-08T04:02:40;16.90;99.90
16523;DHT22;19889;52.546;13.348;2023-08-08T04:05:10;16.90;99.90
16523;DHT22;19889;52.546;13.348;2023-08-08T04:07:38;16.90;99.90
16523;DHT22;19889;52.546;13.348;2023-08-08T04:10:06;16.80;99.90
16523;DHT22;19889;52.546;13.348;2023-08-08T04:13:12;16.80;99.90
16523;DHT22;19889;52.546;13.348;2023-08-08T04:15:41;16.90;99.90
16523;DHT22;19889;52.546;13.348;2023-08-08T04:18:08;16.90;99.90
16523;DHT22;19889;52.546;13.348;2023-08-08T04:20:36;16.90;99.90
16523;DHT22;19889;52.546;13.348;2023-08-08T04:23:03;16.90;99.90
16523;DHT22;19889;52.546;13.348;2023-08-08T04:25:31;16.90;99.90
16523;DHT22;19889;52.546;13.348;2023-08-08T04:27:58;16.90;99.90
16523;DHT22;19889;52.546;13.348;2023-08-08T04:30:27;16.90;99.90
16523;DHT22;19889;52.546;13.348;2023-08-08T04:32:54;16.90;99.90
16523;DHT22;19889;52.546;13.348;2023-08-08T04:35:22;16.90;99.90
16523;DHT22;19889;52.546;13.348;2023-08-08T04:37:50;16.90;99.90
16523;DHT22;19889;52.546;13.348;2023-08-08T04:40:18;16.90;99.90
16523;DHT22;19889;52.546;13.348;2023-08-08T04:42:45;16.90;99.90
16523;DHT22;19889;52.546;13.348;2023-08-08T04:45:12;16.90;99.90
16523;DHT22;19889;52.546;13.348;2023-08-08T04:47:42;16.90;99.90
16523;DHT22;19889;52.546;13.348;2023-08-08T04:50:10;16.90;99.90
16523;DHT22;19889;52.546;13.348;2023-08-08T04:52:37;16.90;99.90
16523;DHT22;19889;52.546;13.348;2023-08-08T04:55:05;16.90;99.90
16523;DHT22;19889;52.546;13.348;2023-08-08T04:57:32;16.90;99.90
16523;DHT22;19889;52.546;13.348;2023-08-08T05:00:00;16.90;99.90
16523;DHT22;19889;52.546;13.348;2023-08-08T05:02:31;16.90;99.90
16523;DHT22;19889;52.546;13.348;2023-08-08T05:05:00;16.90;99.90
16523;DHT22;19889;52.546;13.348;2023-08-08T05:07:27;16.90;99.90
16523;DHT22;19889;52.546;13.348;2023-08-08T05:09:54;16.90;99.90
16523;DHT22;19889;52.546;13.348;2023-08-08T05:12:22;16.90;99.90
16523;DHT22;19889;52.546;13.348;2023-08-08T05:14:50;16.90;99.90
16523;DHT22;19889;52.546;13.348;2023-08-08T05:17:18;16.90;99.90
16523;DHT22;19889;52.546;13.348;2023-08-08T05:19:45;16.90;99.90
16523;DHT22;19889;52.546;13.348;2023-08-08T05:22:14;16.90;99.90
16523;DHT22;19889;52.546;13.348;2023-08-08T05:24:59;16.90;99.90
16523;DHT22;19889;52.546;13.348;2023-08-08T05:27:26;17.80;99.90
16523;DHT22;19889;52.546;13.348;2023-08-08T05:29:53;16.90;99.90
16523;DHT22;19889;52.546;13.348;2023-08-08T05:32:21;16.90;99.90
16523;DHT22;19889;52.546;13.348;2023-08-08T05:34:50;16.90;99.90
16523;DHT22;19889;52.546;13.348;2023-08-08T05:37:19;17.00;99.90
16523;DHT22;19889;52.546;13.348;2023-08-08T05:39:46;17.00;99.90
16523;DHT22;19889;52.546;13.348;2023-08-08T05:42:13;16.90;99.90
16523;DHT22;19889;52.546;13.348;2023-08-08T05:44:41;17.00;99.90
16523;DHT22;19889;52.546;13.348;2023-08-08T05:47:08;17.00;99.90
16523;DHT22;19889;52.546;13.348;2023-08-08T05:49:36;17.00;99.90
16523;DHT22;19889;52.546;13.348;2023-08-08T05:52:04;17.10;99.90
16523;DHT22;19889;52.546;13.348;2023-08-08T05:54:33;17.10;99.90
16523;DHT22;19889;52.546;13.348;2023-08-08T05:57:01;17.20;99.90
16523;DHT22;19889;52.546;13.348;2023-08-08T05:59:28;17.10;99.90
16523;DHT22;19889;52.546;13.348;2023-08-08T06:01:56;17.10;99.90
16523;DHT22;19889;52.546;13.348;2023-08-08T06:04:24;17.20;99.90
16523;DHT22;19889;52.546;13.348;2023-08-08T06:06:51;17.20;99.90
16523;DHT22;19889;52.546;13.348;2023-08-08T06:09:19;17.20;99.90
16523;DHT22;19889;52.546;13.348;2023-08-08T06:11:48;17.20;99.90
16523;DHT22;19889;52.546;13.348;2023-08-08T06:14:15;17.20;99.90
16523;DHT22;19889;52.546;13.348;2023-08-08T06:16:43;17.20;99.90
16523;DHT22;19889;52.546;13.348;2023-08-08T06:19:11;17.20;99.90
16523;DHT22;19889;52.546;13.348;2023-08-08T06:21:41;17.20;99.90
16523;DHT22;19889;52.546;13.348;2023-08-08T06:24:08;17.30;99.90
16523;DHT22;19889;52.546;13.348;2023-08-08T06:26:35;17.10;99.90
16523;DHT22;19889;52.546;13.348;2023-08-08T06:29:05;17.30;99.90
16523;DHT22;19889;52.546;13.348;2023-08-08T06:31:32;17.30;99.90
16523;DHT22;19889;52.546;13.348;2023-08-08T06:34:00;17.40;99.90
16523;DHT22;19889;52.546;13.348;2023-08-08T06:36:27;17.40;99.90
16523;DHT22;19889;52.546;13.348;2023-08-08T06:38:54;17.40;99.90
16523;DHT22;19889;52.546;13.348;2023-08-08T06:41:22;17.50;99.90
16523;DHT22;19889;52.546;13.348;2023-08-08T06:43:51;17.50;99.90
16523;DHT22;19889;52.546;13.348;2023-08-08T06:46:20;17.50;99.90
16523;DHT22;19889;52.546;13.348;2023-08-08T06:48:47;17.50;99.90
16523;DHT22;19889;52.546;13.348;2023-08-08T06:53:52;17.50;99.90
16523;DHT22;19889;52.546;13.348;2023-08-08T06:56:19;17.50;99.90
16523;DHT22;19889;52.546;13.348;2023-08-08T06:58:47;17.50;99.90
16523;DHT22;19889;52.546;13.348;2023-08-08T07:01:15;17.50;99.90
16523;DHT22;19889;52.546;13.348;2023-08-08T07:03:43;17.50;99.90
16523;DHT22;19889;52.546;13.348;2023-08-08T07:06:11;17.60;99.90
16523;DHT22;19889;52.546;13.348;2023-08-08T07:08:38;17.60;99.90
16523;DHT22;19889;52.546;13.348;2023-08-08T07:11:06;17.70;99.90
16523;DHT22;19889;52.546;13.348;2023-08-08T07:13:33;17.70;99.90
16523;DHT22;19889;52.546;13.348;2023-08-08T07:16:00;17.70;99.90
16523;DHT22;19889;52.546;13.348;2023-08-08T07:18:28;17.70;99.90
16523;DHT22;19889;52.546;13.348;2023-08-08T07:20:56;17.80;99.90
16523;DHT22;19889;52.546;13.348;2023-08-08T07:23:23;17.70;99.90
16523;DHT22;19889;52.546;13.348;2023-08-08T07:25:51;17.80;99.90
16523;DHT22;19889;52.546;13.348;2023-08-08T07:28:18;17.80;99.90
16523;DHT22;19889;52.546;13.348;2023-08-08T07:30:46;17.80;99.90
16523;DHT22;19889;52.546;13.348;2023-08-08T07:33:13;17.80;99.90
16523;DHT22;19889;52.546;13.348;2023-08-08T07:35:40;17.90;99.90
16523;DHT22;19889;52.546;13.348;2023-08-08T07:38:09;17.90;99.90
16523;DHT22;19889;52.546;13.348;2023-08-08T07:40:36;17.90;99.90
16523;DHT22;19889;52.546;13.348;2023-08-08T07:43:04;17.90;99.90
16523;DHT22;19889;52.546;13.348;2023-08-08T07:45:31;17.90;99.90
16523;DHT22;19889;52.546;13.348;2023-08-08T07:47:58;18.00;99.90
16523;DHT22;19889;52.546;13.348;2023-08-08T07:50:26;18.00;99.90
16523;DHT22;19889;52.546;13.348;2023-08-08T07:52:53;18.00;99.90
16523;DHT22;19889;52.546;13.348;2023-08-08T07:55:22;18.00;99.90
16523;DHT22;19889;52.546;13.348;2023-08-08T07:57:49;18.10;99.90
16523;DHT22;19889;52.546;13.348;2023-08-08T08:00:17;18.10;99.90
16523;DHT22;19889;52.546;13.348;2023-08-08T08:02:46;18.10;99.90
16523;DHT22;19889;52.546;13.348;2023-08-08T08:05:13;18.10;99.90
16523;DHT22;19889;52.546;13.348;2023-08-08T08:07:41;18.10;99.90
16523;DHT22;19889;52.546;13.348;2023-08-08T08:10:11;18.20;99.90
16523;DHT22;19889;52.546;13.348;2023-08-08T08:12:41;18.20;99.90
16523;DHT22;19889;52.546;13.348;2023-08-08T08:15:09;18.20;99.90
16523;DHT22;19889;52.546;13.348;2023-08-08T08:17:37;18.20;99.90
16523;DHT22;19889;52.546;13.348;2023-08-08T08:20:05;18.30;99.90
16523;DHT22;19889;52.546;13.348;2023-08-08T08:22:38;18.30;99.90
16523;DHT22;19889;52.546;13.348;2023-08-08T08:25:06;18.30;99.90
16523;DHT22;19889;52.546;13.348;2023-08-08T08:27:35;18.40;99.90
16523;DHT22;19889;52.546;13.348;2023-08-08T08:30:05;18.40;99.90
16523;DHT22;19889;52.546;13.348;2023-08-08T08:32:35;18.40;99.90
16523;DHT22;19889;52.546;13.348;2023-08-08T08:35:03;18.40;99.90
16523;DHT22;19889;52.546;13.348;2023-08-08T08:37:32;18.40;99.90
16523;DHT22;19889;52.546;13.348;2023-08-08T08:39:59;18.40;99.90
16523;DHT22;19889;52.546;13.348;2023-08-08T08:42:27;17.90;99.90
16523;DHT22;19889;52.546;13.348;2023-08-08T08:44:57;18.50;99.90
16523;DHT22;19889;52.546;13.348;2023-08-08T08:47:27;18.50;99.90
16523;DHT22;19889;52.546;13.348;2023-08-08T08:49:57;18.50;99.90
16523;DHT22;19889;52.546;13.348;2023-08-08T08:52:25;18.50;99.90
16523;DHT22;19889;52.546;13.348;2023-08-08T08:54:53;18.50;99.90
16523;DHT22;19889;52.546;13.348;2023-08-08T08:57:21;18.60;99.90
16523;DHT22;19889;52.546;13.348;2023-08-08T08:59:49;18.60;99.90
16523;DHT22;19889;52.546;13.348;2023-08-08T09:02:17;18.60;99.90
16523;DHT22;19889;52.546;13.348;2023-08-08T09:04:46;18.60;99.90
16523;DHT22;19889;52.546;13.348;2023-08-08T09:07:15;18.60;99.90
16523;DHT22;19889;52.546;13.348;2023-08-08T09:09:43;18.70;99.90
16523;DHT22;19889;52.546;13.348;2023-08-08T09:12:11;18.70;99.90
16523;DHT22;19889;52.546;13.348;2023-08-08T09:14:40;18.90;99.90
16523;DHT22;19889;52.546;13.348;2023-08-08T09:17:11;19.00;99.90
16523;DHT22;19889;52.546;13.348;2023-08-08T09:19:38;19.10;99.90
16523;DHT22;19889;52.546;13.348;2023-08-08T09:22:07;19.20;99.90
16523;DHT22;19889;52.546;13.348;2023-08-08T09:24:38;19.20;99.90
16523;DHT22;19889;52.546;13.348;2023-08-08T09:27:06;19.20;99.90
16523;DHT22;19889;52.546;13.348;2023-08-08T09:29:34;19.20;99.90
16523;DHT22;19889;52.546;13.348;2023-08-08T09:32:03;19.20;99.90
16523;DHT22;19889;52.546;13.348;2023-08-08T09:34:31;19.20;99.90
16523;DHT22;19889;52.546;13.348;2023-08-08T09:36:59;19.20;99.90
16523;DHT22;19889;52.546;13.348;2023-08-08T09:39:29;19.60;99.90
16523;DHT22;19889;52.546;13.348;2023-08-08T09:41:57;19.10;99.90
16523;DHT22;19889;52.546;13.348;2023-08-08T09:44:25;19.10;99.90
16523;DHT22;19889;52.546;13.348;2023-08-08T09:46:55;19.10;99.90
16523;DHT22;19889;52.546;13.348;2023-08-08T09:49:23;19.10;99.90
16523;DHT22;19889;52.546;13.348;2023-08-08T09:51:50;19.00;99.90
16523;DHT22;19889;52.546;13.348;2023-08-08T09:54:17;19.00;99.90
16523;DHT22;19889;52.546;13.348;2023-08-08T09:56:48;19.00;99.90
16523;DHT22;19889;52.546;13.348;2023-08-08T09:59:17;19.00;99.90
16523;DHT22;19889;52.546;13.348;2023-08-08T10:01:44;18.90;99.90
16523;DHT22;19889;52.546;13.348;2023-08-08T10:04:13;18.90;99.90
16523;DHT22;19889;52.546;13.348;2023-08-08T10:06:40;18.80;99.90
16523;DHT22;19889;52.546;13.348;2023-08-08T10:09:08;18.80;99.90
16523;DHT22;19889;52.546;13.348;2023-08-08T10:11:35;18.80;99.90
16523;DHT22;19889;52.546;13.348;2023-08-08T10:14:04;18.80;99.90
16523;DHT22;19889;52.546;13.348;2023-08-08T10:16:32;18.80;99.90
16523;DHT22;19889;52.546;13.348;2023-08-08T10:19:01;18.90;99.90
16523;DHT22;19889;52.546;13.348;2023-08-08T10:21:33;18.90;99.90
16523;DHT22;19889;52.546;13.348;2023-08-08T10:24:04;18.90;99.90
16523;DHT22;19889;52.546;13.348;2023-08-08T10:26:33;18.90;99.90
16523;DHT22;19889;52.546;13.348;2023-08-08T10:29:01;18.90;99.90
16523;DHT22;19889;52.546;13.348;2023-08-08T10:31:34;18.90;99.90
16523;DHT22;19889;52.546;13.348;2023-08-08T10:34:03;18.90;99.90
16523;DHT22;19889;52.546;13.348;2023-08-08T10:36:45;18.90;99.90
16523;DHT22;19889;52.546;13.348;2023-08-08T10:39:16;18.90;99.90
16523;DHT22;19889;52.546;13.348;2023-08-08T10:41:48;18.90;99.90
16523;DHT22;19889;52.546;13.348;2023-08-08T10:44:25;18.90;99.90
16523;DHT22;19889;52.546;13.348;2023-08-08T10:46:53;19.00;99.90
16523;DHT22;19889;52.546;13.348;2023-08-08T10:49:21;18.90;99.90
16523;DHT22;19889;52.546;13.348;2023-08-08T10:51:50;18.80;99.90
16523;DHT22;19889;52.546;13.348;2023-08-08T10:54:21;18.80;99.90
16523;DHT22;19889;52.546;13.348;2023-08-08T10:56:54;18.80;99.90
16523;DHT22;19889;52.546;13.348;2023-08-08T10:59:23;18.80;99.90
16523;DHT22;19889;52.546;13.348;2023-08-08T11:01:52;18.80;99.90
16523;DHT22;19889;52.546;13.348;2023-08-08T11:04:23;18.80;99.90
16523;DHT22;19889;52.546;13.348;2023-08-08T11:06:53;18.90;99.90
16523;DHT22;19889;52.546;13.348;2023-08-08T11:09:20;18.90;99.90
16523;DHT22;19889;52.546;13.348;2023-08-08T11:11:48;18.90;99.90
16523;DHT22;19889;52.546;13.348;2023-08-08T11:14:17;18.90;99.90
16523;DHT22;19889;52.546;13.348;2023-08-08T11:16:45;18.90;99.90
16523;DHT22;19889;52.546;13.348;2023-08-08T11:19:14;18.90;99.90
16523;DHT22;19889;52.546;13.348;2023-08-08T11:21:43;18.90;99.90
16523;DHT22;19889;52.546;13.348;2023-08-08T11:24:11;19.00;99.90
16523;DHT22;19889;52.546;13.348;2023-08-08T11:26:40;19.00;99.90
16523;DHT22;19889;52.546;13.348;2023-08-08T11:29:07;19.10;99.90
16523;DHT22;19889;52.546;13.348;2023-08-08T11:31:35;19.00;99.90
16523;DHT22;19889;52.546;13.348;2023-08-08T11:34:04;19.00;99.90
16523;DHT22;19889;52.546;13.348;2023-08-08T11:36:34;19.00;99.90
16523;DHT22;19889;52.546;13.348;2023-08-08T11:39:03;19.00;99.90
16523;DHT22;19889;52.546;13.348;2023-08-08T11:41:34;19.00;99.90
16523;DHT22;19889;52.546;13.348;2023-08-08T11:44:03;18.90;99.90
16523;DHT22;19889;52.546;13.348;2023-08-08T11:46:30;18.90;99.90
16523;DHT22;19889;52.546;13.348;2023-08-08T11:49:02;18.90;99.90
16523;DHT22;19889;52.546;13.348;2023-08-08T11:51:30;18.90;99.90
16523;DHT22;19889;52.546;13.348;2023-08-08T11:54:00;18.90;99.90
16523;DHT22;19889;52.546;13.348;2023-08-08T11:56:28;19.00;99.90
16523;DHT22;19889;52.546;13.348;2023-08-08T11:58:55;19.00;99.90
16523;DHT22;19889;52.546;13.348;2023-08-08T12:01:24;19.10;99.90
16523;DHT22;19889;52.546;13.348;2023-08-08T12:03:51;19.10;99.90
16523;DHT22;19889;52.546;13.348;2023-08-08T12:06:20;19.10;99.90
16523;DHT22;19889;52.546;13.348;2023-08-08T12:08:48;19.10;99.90
16523;DHT22;19889;52.546;13.348;2023-08-08T12:11:17;19.20;99.90
16523;DHT22;19889;52.546;13.348;2023-08-08T12:13:44;19.20;99.90
16523;DHT22;19889;52.546;13.348;2023-08-08T12:16:14;19.20;99.90
16523;DHT22;19889;52.546;13.348;2023-08-08T12:18:42;19.30;99.90
16523;DHT22;19889;52.546;13.348;2023-08-08T12:21:11;19.30;99.90
16523;DHT22;19889;52.546;13.348;2023-08-08T12:23:39;19.40;99.90
16523;DHT22;19889;52.546;13.348;2023-08-08T12:26:07;19.40;99.90
16523;DHT22;19889;52.546;13.348;2023-08-08T12:28:35;19.40;99.90
16523;DHT22;19889;52.546;13.348;2023-08-08T12:31:03;19.40;99.90
16523;DHT22;19889;52.546;13.348;2023-08-08T12:33:31;19.40;99.90
16523;DHT22;19889;52.546;13.348;2023-08-08T12:35:58;19.50;99.90
16523;DHT22;19889;52.546;13.348;2023-08-08T12:38:25;19.50;99.90
16523;DHT22;19889;52.546;13.348;2023-08-08T12:40:52;19.50;99.90
16523;DHT22;19889;52.546;13.348;2023-08-08T12:43:19;19.60;99.90
16523;DHT22;19889;52.546;13.348;2023-08-08T12:45:48;19.60;99.90
16523;DHT22;19889;52.546;13.348;2023-08-08T12:48:15;19.60;99.90
16523;DHT22;19889;52.546;13.348;2023-08-08T12:50:42;19.60;99.90
16523;DHT22;19889;52.546;13.348;2023-08-08T12:53:10;19.60;99.90
16523;DHT22;19889;52.546;13.348;2023-08-08T12:55:37;19.60;99.90
16523;DHT22;19889;52.546;13.348;2023-08-08T12:58:05;19.60;99.90
16523;DHT22;19889;52.546;13.348;2023-08-08T13:00:32;19.70;99.90
16523;DHT22;19889;52.546;13.348;2023-08-08T13:03:01;19.70;99.90
16523;DHT22;19889;52.546;13.348;2023-08-08T13:05:29;19.60;99.90
16523;DHT22;19889;52.546;13.348;2023-08-08T13:07:56;19.70;99.90
16523;DHT22;19889;52.546;13.348;2023-08-08T13:10:23;19.70;99.90
16523;DHT22;19889;52.546;13.348;2023-08-08T13:12:50;19.60;99.90
16523;DHT22;19889;52.546;13.348;2023-08-08T13:15:18;19.70;99.90
16523;DHT22;19889;52.546;13.348;2023-08-08T13:17:45;19.60;99.90
16523;DHT22;19889;52.546;13.348;2023-08-08T13:20:15;19.60;99.90
16523;DHT22;19889;52.546;13.348;2023-08-08T13:22:42;19.70;99.90
16523;DHT22;19889;52.546;13.348;2023-08-08T13:25:09;19.70;99.90
16523;DHT22;19889;52.546;13.348;2023-08-08T13:27:37;19.70;99.90
16523;DHT22;19889;52.546;13.348;2023-08-08T13:30:05;19.70;99.90
16523;DHT22;19889;52.546;13.348;2023-08-08T13:32:33;19.70;99.90
16523;DHT22;19889;52.546;13.348;2023-08-08T13:35:00;19.70;99.90
16523;DHT22;19889;52.546;13.348;2023-08-08T13:37:28;19.70;99.90
16523;DHT22;19889;52.546;13.348;2023-08-08T13:39:56;19.70;99.90
16523;DHT22;19889;52.546;13.348;2023-08-08T13:42:23;19.70;99.90
16523;DHT22;19889;52.546;13.348;2023-08-08T13:44:51;19.70;99.90
16523;DHT22;19889;52.546;13.348;2023-08-08T13:47:18;19.60;99.90
16523;DHT22;19889;52.546;13.348;2023-08-08T13:49:46;19.50;99.90
16523;DHT22;19889;52.546;13.348;2023-08-08T13:52:13;19.40;99.90
16523;DHT22;19889;52.546;13.348;2023-08-08T13:54:42;19.40;99.90
16523;DHT22;19889;52.546;13.348;2023-08-08T13:57:09;19.30;99.90
16523;DHT22;19889;52.546;13.348;2023-08-08T13:59:36;19.30;99.90
16523;DHT22;19889;52.546;13.348;2023-08-08T14:02:03;19.20;99.90
16523;DHT22;19889;52.546;13.348;2023-08-08T14:04:31;19.20;99.90
16523;DHT22;19889;52.546;13.348;2023-08-08T14:06:59;19.20;99.90
16523;DHT22;19889;52.546;13.348;2023-08-08T14:09:26;19.20;99.90
16523;DHT22;19889;52.546;13.348;2023-08-08T14:11:55;19.20;99.90
16523;DHT22;19889;52.546;13.348;2023-08-08T14:14:24;19.10;99.90
16523;DHT22;19889;52.546;13.348;2023-08-08T14:16:59;19.20;99.90
16523;DHT22;19889;52.546;13.348;2023-08-08T14:19:26;19.20;99.90
16523;DHT22;19889;52.546;13.348;2023-08-08T14:21:54;19.10;99.90
16523;DHT22;19889;52.546;13.348;2023-08-08T14:24:21;19.10;99.90
16523;DHT22;19889;52.546;13.348;2023-08-08T14:26:48;19.10;99.90
16523;DHT22;19889;52.546;13.348;2023-08-08T14:29:17;19.10;99.90
16523;DHT22;19889;52.546;13.348;2023-08-08T14:31:44;19.10;99.90
16523;DHT22;19889;52.546;13.348;2023-08-08T14:34:14;19.10;99.90
16523;DHT22;19889;52.546;13.348;2023-08-08T14:36:42;19.10;99.90
16523;DHT22;19889;52.546;13.348;2023-08-08T14:39:10;19.10;99.90
16523;DHT22;19889;52.546;13.348;2023-08-08T14:41:38;19.10;99.90
16523;DHT22;19889;52.546;13.348;2023-08-08T14:44:05;19.10;99.90
16523;DHT22;19889;52.546;13.348;2023-08-08T14:46:34;19.10;99.90
16523;DHT22;19889;52.546;13.348;2023-08-08T14:49:01;19.20;99.90
16523;DHT22;19889;52.546;13.348;2023-08-08T14:51:31;19.20;99.90
16523;DHT22;19889;52.546;13.348;2023-08-08T14:53:58;19.20;99.90
16523;DHT22;19889;52.546;13.348;2023-08-08T14:56:26;19.30;99.90
16523;DHT22;19889;52.546;13.348;2023-08-08T14:58:54;19.40;99.90
16523;DHT22;19889;52.546;13.348;2023-08-08T15:01:21;19.30;99.90
16523;DHT22;19889;52.546;13.348;2023-08-08T15:03:50;19.30;99.90
16523;DHT22;19889;52.546;13.348;2023-08-08T15:06:17;19.40;99.90
16523;DHT22;19889;52.546;13.348;2023-08-08T15:08:45;19.40;99.90
16523;DHT22;19889;52.546;13.348;2023-08-08T15:11:12;19.30;99.90
16523;DHT22;19889;52.546;13.348;2023-08-08T15:13:39;19.30;99.90
16523;DHT22;19889;52.546;13.348;2023-08-08T15:16:07;19.30;99.90
16523;DHT22;19889;52.546;13.348;2023-08-08T15:18:34;19.20;99.90
16523;DHT22;19889;52.546;13.348;2023-08-08T15:21:03;19.20;99.90
16523;DHT22;19889;52.546;13.348;2023-08-08T15:23:31;19.20;99.90
16523;DHT22;19889;52.546;13.348;2023-08-08T15:25:58;19.20;99.90